Sao Jose do Belmonte, Brazil
Current Conditions -  °F | °C
As of 8:00 AM on Thursday 18 Dec 2014 (Local Time) from SBJU Reporting Station
Overcast Overcast  
Wind Chill: 75°   Ceiling: 2000
Heat Index: 75°   Visibility: 6mi
Dew Point: 75°   Wind: 6mph
Humidity: 100%   Direction: 150°SSE
Pressure: 30.06"   Gusts: NA
Location:  7.86°S, 38.76°W
Report Text: SBJU 181100Z 15005KT 9999 OVC020 24/24 Q1018
Loading
Personal Weather Stations






























Interactive Weather Map New forecast layout! Learn more

10-Day Weather Forecast

Advertisements
Track Severe Weather on mobile